createdAt,value
2023-02-17T00:00:59.956Z,46.50
2023-02-17T00:03:28.999Z,43.70
2023-02-17T00:05:56.780Z,47.80
2023-02-17T00:08:26.409Z,47.77
2023-02-17T00:10:58.502Z,48.90
2023-02-17T00:13:26.537Z,47.33
2023-02-17T00:15:54.502Z,48.03
2023-02-17T00:18:22.342Z,49.50
2023-02-17T00:20:50.606Z,45.33
2023-02-17T00:23:18.458Z,46.73
2023-02-17T00:25:47.724Z,47.50
2023-02-17T00:28:16.142Z,49.40
2023-02-17T00:30:43.910Z,52.70
2023-02-17T00:33:11.685Z,50.73
2023-02-17T00:35:41.876Z,49.50
2023-02-17T00:38:10.164Z,48.37
2023-02-17T00:40:39.289Z,47.63
2023-02-17T00:43:08.350Z,50.33
2023-02-17T00:45:36.515Z,51.37
2023-02-17T00:48:04.366Z,52.03
2023-02-17T00:50:32.227Z,51.97
2023-02-17T00:53:00.012Z,53.07
2023-02-17T00:55:28.756Z,52.37
2023-02-17T00:57:57.227Z,52.70
2023-02-17T01:00:26.718Z,53.00
2023-02-17T01:02:54.801Z,56.63
2023-02-17T01:05:24.158Z,57.37
2023-02-17T01:07:51.961Z,55.57
2023-02-17T01:10:22.889Z,54.17
2023-02-17T01:12:50.874Z,56.70
2023-02-17T01:15:18.728Z,58.40
2023-02-17T01:17:48.320Z,56.13
2023-02-17T01:20:16.333Z,59.80
2023-02-17T01:22:47.144Z,57.37
2023-02-17T01:25:18.639Z,57.03
2023-02-17T01:27:47.912Z,59.27
2023-02-17T01:30:16.379Z,59.20
2023-02-17T01:32:47.663Z,61.70
2023-02-17T01:35:16.393Z,61.97
2023-02-17T01:37:45.840Z,57.20
2023-02-17T01:40:15.135Z,63.07
2023-02-17T01:42:42.916Z,60.60
2023-02-17T01:45:34.511Z,58.83
2023-02-17T01:48:07.420Z,64.47
2023-02-17T01:50:37.188Z,60.60
2023-02-17T01:53:11.834Z,65.07
2023-02-17T01:55:40.942Z,65.43
2023-02-17T01:58:10.101Z,64.80
2023-02-17T02:00:38.302Z,66.27
2023-02-17T02:03:09.867Z,63.30
2023-02-17T02:05:39.270Z,61.03
2023-02-17T02:08:06.935Z,63.00
2023-02-17T02:10:34.959Z,65.07
2023-02-17T02:13:06.629Z,60.30
2023-02-17T02:15:37.627Z,57.63
2023-02-17T02:18:17.668Z,60.00
2023-02-17T02:21:24.218Z,53.07
2023-02-17T02:24:17.693Z,55.10
2023-02-17T02:27:14.970Z,55.97
2023-02-17T02:29:59.843Z,54.17
2023-02-17T02:33:03.554Z,54.50
2023-02-17T02:35:37.543Z,51.47
2023-02-17T02:38:11.028Z,51.77
2023-02-17T02:40:43.507Z,52.37
2023-02-17T02:43:11.414Z,49.97
2023-02-17T02:45:39.890Z,50.30
2023-02-17T02:48:09.084Z,48.47
2023-02-17T02:50:59.955Z,50.10
2023-02-17T02:53:49.242Z,47.67
2023-02-17T02:56:24.802Z,48.03
2023-02-17T02:59:01.566Z,45.10
2023-02-17T03:01:31.847Z,44.33
2023-02-17T03:04:08.705Z,41.57
2023-02-17T03:06:40.637Z,43.73
2023-02-17T03:09:11.498Z,37.60
2023-02-17T03:12:20.225Z,37.10
2023-02-17T03:14:49.601Z,34.63
2023-02-17T03:17:18.489Z,33.33
2023-02-17T03:19:51.830Z,31.27
2023-02-17T03:22:23.537Z,30.70
2023-02-17T03:24:51.806Z,29.77
2023-02-17T03:27:20.768Z,30.03
2023-02-17T03:29:49.400Z,26.33
2023-02-17T03:32:19.430Z,27.03
2023-02-17T03:34:47.136Z,29.70
2023-02-17T03:37:16.281Z,28.43
2023-02-17T03:39:43.945Z,28.47
2023-02-17T03:42:12.006Z,29.23
2023-02-17T03:44:39.963Z,29.13
2023-02-17T03:47:08.351Z,30.77
2023-02-17T03:49:36.223Z,29.17
2023-02-17T03:52:04.221Z,26.50
2023-02-17T03:54:33.953Z,28.57
2023-02-17T03:57:02.090Z,26.90
2023-02-17T03:59:30.349Z,27.93
2023-02-17T04:01:58.211Z,28.77
2023-02-17T04:04:26.170Z,28.10
2023-02-17T04:06:54.995Z,27.70
2023-02-17T04:09:22.759Z,29.53
2023-02-17T04:11:51.814Z,27.00
2023-02-17T04:14:19.522Z,27.43
2023-02-17T04:16:47.179Z,27.40
2023-02-17T04:19:15.316Z,26.30
2023-02-17T04:21:43.068Z,25.97
2023-02-17T04:24:10.824Z,26.50
2023-02-17T04:26:38.503Z,25.67
2023-02-17T04:29:07.620Z,27.20
2023-02-17T04:31:35.525Z,28.23
2023-02-17T04:34:03.439Z,29.00
2023-02-17T04:36:31.187Z,30.53
2023-02-17T04:38:58.964Z,31.23
2023-02-17T04:41:26.708Z,28.47
2023-02-17T04:43:54.425Z,27.07
2023-02-17T04:46:23.478Z,25.90
2023-02-17T04:48:51.321Z,27.87
2023-02-17T04:51:18.930Z,26.80
2023-02-17T04:53:46.654Z,28.33
2023-02-17T04:56:14.398Z,28.70
2023-02-17T04:58:42.341Z,30.47
2023-02-17T05:01:10.166Z,28.80
2023-02-17T05:03:39.240Z,27.53
2023-02-17T05:06:07.865Z,28.10
2023-02-17T05:08:35.704Z,29.77
2023-02-17T05:11:03.566Z,30.43
2023-02-17T05:13:33.127Z,30.00
2023-02-17T05:16:00.987Z,29.60
2023-02-17T05:18:28.785Z,28.27
2023-02-17T05:20:57.925Z,30.10
2023-02-17T05:23:25.630Z,28.40
2023-02-17T05:25:53.308Z,30.20
2023-02-17T05:28:21.145Z,28.87
2023-02-17T05:30:49.697Z,28.30
2023-02-17T05:33:17.745Z,29.27
2023-02-17T05:35:45.481Z,32.17
2023-02-17T05:38:14.478Z,31.07
2023-02-17T05:40:42.383Z,30.53
2023-02-17T05:43:10.043Z,31.80
2023-02-17T05:45:38.071Z,33.33
2023-02-17T05:48:05.794Z,35.20
2023-02-17T05:50:33.616Z,33.70
2023-02-17T05:53:03.816Z,35.87
2023-02-17T05:55:33.348Z,34.63
2023-02-17T05:58:01.224Z,35.57
2023-02-17T06:00:29.277Z,35.10
2023-02-17T06:02:57.288Z,37.53
2023-02-17T06:05:25.760Z,36.70
2023-02-17T06:07:53.655Z,36.30
2023-02-17T06:10:21.580Z,36.30
2023-02-17T06:12:50.676Z,36.53
2023-02-17T06:15:18.596Z,36.33
2023-02-17T06:17:46.907Z,35.83
2023-02-17T06:20:15.275Z,33.57
2023-02-17T06:22:43.424Z,34.70
2023-02-17T06:25:11.863Z,33.00
2023-02-17T06:27:39.682Z,37.03
2023-02-17T06:30:10.232Z,35.40
2023-02-17T06:32:38.134Z,36.63
2023-02-17T06:35:06.420Z,33.93
2023-02-17T06:37:34.409Z,33.53
2023-02-17T06:40:02.177Z,33.80
2023-02-17T06:42:29.998Z,34.60
2023-02-17T06:44:57.948Z,33.20
2023-02-17T06:47:27.326Z,35.47
2023-02-17T06:49:55.062Z,31.87
2023-02-17T06:52:22.737Z,35.20
2023-02-17T06:54:50.477Z,34.47
2023-02-17T06:57:18.545Z,34.90
2023-02-17T06:59:46.485Z,36.10
2023-02-17T07:02:15.756Z,36.60
2023-02-17T07:04:45.063Z,36.90
2023-02-17T07:07:13.013Z,37.10
2023-02-17T07:09:41.136Z,38.10
2023-02-17T07:12:09.418Z,39.33
2023-02-17T07:14:37.566Z,36.67
2023-02-17T07:17:06.705Z,35.47
2023-02-17T07:19:34.528Z,38.33
2023-02-17T07:22:03.705Z,36.90
2023-02-17T07:24:34.422Z,36.40
2023-02-17T07:27:10.693Z,38.13
2023-02-17T07:29:38.865Z,36.30
2023-02-17T07:32:07.043Z,36.10
2023-02-17T07:34:35.152Z,37.53
2023-02-17T07:37:10.508Z,36.07
2023-02-17T07:39:38.558Z,37.57
2023-02-17T07:42:07.101Z,34.83
2023-02-17T07:44:34.857Z,39.70
2023-02-17T07:47:03.538Z,36.70
2023-02-17T07:49:31.628Z,36.47
2023-02-17T07:51:59.712Z,33.70
2023-02-17T07:54:29.205Z,37.57
2023-02-17T07:56:56.950Z,34.60
2023-02-17T07:59:25.249Z,35.90
2023-02-17T08:01:53.288Z,37.20
2023-02-17T08:04:24.528Z,36.20
2023-02-17T08:06:52.791Z,37.83
2023-02-17T08:09:34.463Z,31.90
2023-02-17T08:12:21.752Z,35.73
2023-02-17T08:14:49.536Z,33.40
2023-02-17T08:17:17.833Z,33.47
2023-02-17T08:19:48.901Z,32.40
2023-02-17T08:22:17.615Z,33.10
2023-02-17T08:24:45.823Z,29.30
2023-02-17T08:27:15.900Z,27.23
2023-02-17T08:29:44.649Z,29.97
2023-02-17T08:32:12.716Z,26.93
2023-02-17T08:34:42.026Z,25.37
2023-02-17T08:37:10.987Z,27.00
2023-02-17T08:39:39.005Z,28.00
2023-02-17T08:42:07.303Z,25.03
2023-02-17T08:44:38.084Z,24.80
2023-02-17T08:47:07.332Z,28.80
2023-02-17T08:49:35.930Z,27.57
2023-02-17T08:52:04.806Z,25.30
2023-02-17T08:54:32.949Z,26.60
2023-02-17T08:57:01.048Z,24.90
2023-02-17T08:59:29.185Z,25.70
2023-02-17T09:01:58.831Z,25.20
2023-02-17T09:04:27.581Z,23.50
2023-02-17T09:06:57.158Z,25.17
2023-02-17T09:09:27.730Z,23.87
2023-02-17T09:11:56.865Z,26.80
2023-02-17T09:14:25.300Z,24.37
2023-02-17T09:16:54.297Z,24.20
2023-02-17T09:19:24.409Z,25.00
2023-02-17T09:21:52.418Z,22.23
2023-02-17T09:24:20.556Z,23.43
2023-02-17T09:26:51.287Z,23.00
2023-02-17T09:29:19.095Z,21.87
2023-02-17T09:31:47.457Z,20.77
2023-02-17T09:34:15.625Z,19.90
2023-02-17T09:36:45.078Z,20.60
2023-02-17T09:39:15.081Z,21.47
2023-02-17T09:41:47.274Z,19.90
2023-02-17T09:44:22.106Z,19.17
2023-02-17T09:47:02.296Z,21.20
2023-02-17T09:49:36.467Z,19.73
2023-02-17T09:52:10.950Z,22.77
2023-02-17T09:54:45.778Z,18.30
2023-02-17T09:57:19.731Z,18.80
2023-02-17T09:59:50.109Z,17.43
2023-02-17T10:02:21.462Z,17.80
2023-02-17T10:04:51.726Z,19.10
2023-02-17T10:07:23.199Z,17.80
2023-02-17T10:09:53.883Z,18.70
2023-02-17T10:12:25.353Z,15.17
2023-02-17T10:14:55.154Z,18.33
2023-02-17T10:17:28.123Z,18.00
2023-02-17T10:20:01.045Z,16.23
2023-02-17T10:22:32.065Z,16.70
2023-02-17T10:25:01.723Z,20.10
2023-02-17T10:27:35.538Z,20.30
2023-02-17T10:30:14.432Z,20.20
2023-02-17T10:32:50.437Z,19.93
2023-02-17T10:35:19.826Z,20.70
2023-02-17T10:37:51.077Z,23.40
2023-02-17T10:40:21.727Z,19.97
2023-02-17T10:42:51.899Z,23.77
2023-02-17T10:45:26.622Z,22.57
2023-02-17T10:47:59.224Z,24.50
2023-02-17T10:50:27.562Z,24.20
2023-02-17T10:52:57.390Z,22.30
2023-02-17T10:55:33.522Z,23.30
2023-02-17T10:58:06.519Z,23.60
2023-02-17T11:00:34.638Z,20.70
2023-02-17T11:03:04.281Z,22.67
2023-02-17T11:05:33.352Z,20.80
2023-02-17T11:08:06.333Z,21.57
2023-02-17T11:10:36.035Z,21.90
2023-02-17T11:13:06.224Z,21.97
2023-02-17T11:15:38.213Z,21.90
2023-02-17T11:18:12.893Z,22.03
2023-02-17T11:20:40.831Z,20.77
2023-02-17T11:23:24.045Z,20.53
2023-02-17T11:26:02.141Z,19.47
2023-02-17T11:28:30.120Z,18.73
2023-02-17T11:31:02.614Z,20.27
2023-02-17T11:33:33.324Z,18.30
2023-02-17T11:36:01.478Z,18.60
2023-02-17T11:38:35.405Z,18.83
2023-02-17T11:41:06.745Z,17.87
2023-02-17T11:43:35.582Z,20.10
2023-02-17T11:46:14.867Z,18.30
2023-02-17T11:49:12.941Z,20.07
2023-02-17T11:51:52.090Z,18.93
2023-02-17T11:54:25.216Z,17.10
2023-02-17T11:57:02.925Z,21.83
2023-02-17T11:59:41.628Z,21.00
2023-02-17T12:02:19.507Z,20.90
2023-02-17T12:04:55.550Z,18.83
2023-02-17T12:07:32.080Z,19.27
2023-02-17T12:10:05.873Z,15.00
2023-02-17T12:12:41.715Z,18.20
2023-02-17T12:15:26.124Z,18.33
2023-02-17T12:18:04.901Z,19.70
2023-02-17T12:20:40.740Z,20.23
2023-02-17T12:23:20.148Z,21.50
2023-02-17T12:25:52.169Z,19.60
2023-02-17T12:28:38.586Z,20.40
2023-02-17T12:31:13.969Z,19.83
2023-02-17T12:33:51.837Z,19.83
2023-02-17T12:36:20.083Z,20.17
2023-02-17T12:38:50.936Z,20.07
2023-02-17T12:41:23.805Z,17.53
2023-02-17T12:43:53.093Z,17.80
2023-02-17T12:46:24.739Z,18.83
2023-02-17T12:48:55.346Z,16.93
2023-02-17T12:51:25.978Z,16.33
2023-02-17T12:53:57.330Z,16.90
2023-02-17T12:56:41.518Z,17.67
2023-02-17T12:59:15.936Z,16.30
2023-02-17T13:01:50.343Z,15.67
2023-02-17T13:04:19.382Z,15.07
2023-02-17T13:06:51.709Z,13.90
2023-02-17T13:09:26.530Z,14.10
2023-02-17T13:11:56.015Z,12.83
2023-02-17T13:14:28.480Z,13.03
2023-02-17T13:16:56.924Z,12.10
2023-02-17T13:19:32.034Z,11.70
2023-02-17T13:22:02.196Z,11.33
2023-02-17T13:24:35.341Z,10.60
2023-02-17T13:27:20.807Z,10.17
2023-02-17T13:29:48.686Z,10.10
2023-02-17T13:32:16.529Z,11.13
2023-02-17T13:34:46.510Z,10.50
2023-02-17T13:37:22.215Z,9.00
2023-02-17T13:39:50.130Z,13.40
2023-02-17T13:42:35.045Z,13.73
2023-02-17T13:45:04.909Z,13.37
2023-02-17T13:47:37.981Z,11.97
2023-02-17T13:50:07.374Z,11.60
2023-02-17T13:52:35.174Z,11.53
2023-02-17T13:55:05.079Z,11.47
2023-02-17T13:57:35.910Z,11.70
2023-02-17T14:00:24.284Z,10.50
2023-02-17T14:02:53.474Z,10.10
2023-02-17T14:05:23.161Z,10.20
2023-02-17T14:07:51.250Z,10.40
2023-02-17T14:10:21.551Z,9.23
2023-02-17T14:12:50.665Z,8.30
2023-02-17T14:15:19.267Z,8.00
2023-02-17T14:17:47.074Z,8.43
2023-02-17T14:20:29.612Z,6.60
2023-02-17T14:23:04.430Z,6.33
2023-02-17T14:25:34.708Z,5.93
2023-02-17T14:28:04.199Z,4.87
2023-02-17T14:30:34.092Z,5.10
2023-02-17T14:33:03.677Z,5.23
2023-02-17T14:35:32.875Z,4.07
2023-02-17T14:38:08.884Z,2.00
2023-02-17T14:40:38.460Z,2.70
2023-02-17T14:43:09.039Z,2.03
2023-02-17T14:45:36.920Z,3.13
2023-02-17T14:48:05.205Z,2.67
2023-02-17T14:50:33.170Z,3.07
2023-02-17T14:53:00.798Z,2.90
2023-02-17T14:55:33.598Z,2.70
2023-02-17T14:58:01.281Z,3.00
2023-02-17T15:00:30.277Z,3.20
2023-02-17T15:02:58.305Z,4.97
2023-02-17T15:05:26.301Z,3.13
2023-02-17T15:07:53.985Z,2.77
2023-02-17T15:10:27.612Z,3.30
2023-02-17T15:12:55.855Z,3.73
2023-02-17T15:15:23.785Z,3.10
2023-02-17T15:17:52.766Z,3.63
2023-02-17T15:20:20.471Z,3.50
2023-02-17T15:22:52.743Z,3.07
2023-02-17T15:25:23.023Z,3.70
2023-02-17T15:27:51.829Z,2.93
2023-02-17T15:30:20.918Z,3.80
2023-02-17T15:32:48.746Z,3.70
2023-02-17T15:35:20.394Z,3.80
2023-02-17T15:37:48.252Z,3.40
2023-02-17T15:40:17.703Z,4.00
2023-02-17T15:42:46.279Z,3.77
2023-02-17T15:45:15.882Z,3.83
2023-02-17T15:47:46.209Z,5.80
2023-02-17T15:50:19.218Z,4.63
2023-02-17T15:52:50.526Z,3.90
2023-02-17T15:55:19.083Z,4.53
2023-02-17T15:57:48.912Z,4.20
2023-02-17T16:00:21.616Z,4.70
2023-02-17T16:02:49.356Z,4.60
2023-02-17T16:05:18.967Z,5.80
2023-02-17T16:07:46.937Z,4.90
2023-02-17T16:10:17.813Z,3.27
2023-02-17T16:12:46.302Z,5.50
2023-02-17T16:15:17.061Z,4.30
2023-02-17T16:17:45.176Z,4.13
2023-02-17T16:20:19.125Z,4.50
2023-02-17T16:22:47.263Z,6.00
2023-02-17T16:25:17.514Z,4.70
2023-02-17T16:27:46.894Z,4.50
2023-02-17T16:30:18.922Z,6.20
2023-02-17T16:32:47.363Z,4.10
2023-02-17T16:35:16.690Z,3.37
2023-02-17T16:37:50.963Z,2.93
2023-02-17T16:40:21.108Z,4.53
2023-02-17T16:42:48.788Z,5.03
2023-02-17T16:45:17.909Z,3.43
2023-02-17T16:47:48.164Z,3.47
2023-02-17T16:50:25.029Z,5.67
2023-02-17T16:52:53.952Z,6.20
2023-02-17T16:55:25.272Z,5.60
2023-02-17T16:57:53.538Z,5.30
2023-02-17T17:00:23.648Z,3.37
2023-02-17T17:02:54.051Z,3.30
2023-02-17T17:05:22.870Z,3.10
2023-02-17T17:07:51.661Z,4.87
2023-02-17T17:10:21.060Z,5.40
2023-02-17T17:12:51.002Z,4.80
2023-02-17T17:15:19.759Z,3.80
2023-02-17T17:17:52.733Z,5.20
2023-02-17T17:20:23.928Z,3.97
2023-02-17T17:22:52.343Z,5.50
2023-02-17T17:25:20.421Z,4.37
2023-02-17T17:27:48.329Z,5.03
2023-02-17T17:30:20.310Z,5.00
2023-02-17T17:32:48.460Z,4.47
2023-02-17T17:35:17.075Z,4.90
2023-02-17T17:37:45.284Z,5.10
2023-02-17T17:40:18.751Z,5.10
2023-02-17T17:42:46.783Z,4.40
2023-02-17T17:45:15.454Z,4.70
2023-02-17T17:47:45.482Z,4.50
2023-02-17T17:50:22.559Z,6.30
2023-02-17T17:52:51.671Z,6.07
2023-02-17T17:55:22.407Z,5.10
2023-02-17T17:57:50.991Z,5.40
2023-02-17T18:00:20.950Z,3.30
2023-02-17T18:02:50.935Z,5.27
2023-02-17T18:05:19.289Z,4.90
2023-02-17T18:07:53.850Z,4.60
2023-02-17T18:10:22.250Z,4.60
2023-02-17T18:12:56.021Z,5.00
2023-02-17T18:15:24.270Z,5.03
2023-02-17T18:17:53.701Z,4.30
2023-02-17T18:20:21.735Z,4.83
2023-02-17T18:22:49.467Z,6.10
2023-02-17T18:25:18.207Z,3.67
2023-02-17T18:27:47.896Z,5.13
2023-02-17T18:30:17.822Z,4.63
2023-02-17T18:32:46.104Z,5.30
2023-02-17T18:35:15.434Z,4.67
2023-02-17T18:37:43.811Z,6.17
2023-02-17T18:40:15.171Z,4.60
2023-02-17T18:42:45.299Z,6.10
2023-02-17T18:45:13.859Z,4.07
2023-02-17T18:47:43.179Z,4.80
2023-02-17T18:50:12.168Z,4.40
2023-02-17T18:52:42.353Z,5.37
2023-02-17T18:55:11.170Z,5.10
2023-02-17T18:57:39.354Z,4.23
2023-02-17T19:00:10.797Z,5.17
2023-02-17T19:02:38.920Z,3.80
2023-02-17T19:05:07.535Z,5.03
2023-02-17T19:07:35.633Z,5.50
2023-02-17T19:10:06.520Z,4.10
2023-02-17T19:12:37.583Z,5.87
2023-02-17T19:15:05.557Z,3.83
2023-02-17T19:17:34.012Z,7.00
2023-02-17T19:20:02.202Z,5.47
2023-02-17T19:22:30.231Z,3.37
2023-02-17T19:24:58.237Z,5.57
2023-02-17T19:27:27.443Z,5.80
2023-02-17T19:29:55.247Z,5.77
2023-02-17T19:32:23.016Z,3.67
2023-02-17T19:34:50.774Z,4.30
2023-02-17T19:37:18.776Z,5.23
2023-02-17T19:39:46.588Z,3.83
2023-02-17T19:42:14.433Z,5.80
2023-02-17T19:44:43.690Z,4.40
2023-02-17T19:47:11.367Z,5.53
2023-02-17T19:49:39.206Z,5.73
2023-02-17T19:52:07.505Z,5.47
2023-02-17T19:54:35.618Z,5.17
2023-02-17T19:57:09.490Z,5.20
2023-02-17T19:59:38.274Z,4.77
2023-02-17T20:02:09.842Z,3.93
2023-02-17T20:04:38.955Z,4.80
2023-02-17T20:07:06.859Z,4.70
2023-02-17T20:09:35.250Z,4.20
2023-02-17T20:12:03.395Z,5.07
2023-02-17T20:14:31.552Z,4.77
2023-02-17T20:17:00.714Z,6.90
2023-02-17T20:19:30.136Z,4.57
2023-02-17T20:21:59.743Z,4.57
2023-02-17T20:24:27.564Z,5.10
2023-02-17T20:26:55.475Z,4.27
2023-02-17T20:29:23.884Z,5.67
2023-02-17T20:31:51.839Z,5.20
2023-02-17T20:34:28.519Z,5.57
2023-02-17T20:37:01.605Z,4.80
2023-02-17T20:39:30.167Z,4.57
2023-02-17T20:41:58.266Z,4.63
2023-02-17T20:44:27.987Z,4.67
2023-02-17T20:46:57.058Z,4.13
2023-02-17T20:49:25.228Z,4.37
2023-02-17T20:51:53.525Z,4.40
2023-02-17T20:54:24.906Z,4.30
2023-02-17T20:56:53.081Z,3.53
2023-02-17T20:59:21.310Z,4.00
2023-02-17T21:01:49.427Z,5.03
2023-02-17T21:04:17.166Z,4.90
2023-02-17T21:06:46.955Z,5.27
2023-02-17T21:09:17.476Z,3.57
2023-02-17T21:11:48.211Z,3.90
2023-02-17T21:14:16.368Z,4.63
2023-02-17T21:16:44.113Z,4.40
2023-02-17T21:19:11.811Z,3.80
2023-02-17T21:21:40.862Z,6.23
2023-02-17T21:24:08.777Z,6.07
2023-02-17T21:26:36.916Z,4.90
2023-02-17T21:29:06.379Z,5.27
2023-02-17T21:31:34.371Z,5.17
2023-02-17T21:34:02.282Z,3.57
2023-02-17T21:36:30.007Z,5.20
2023-02-17T21:38:57.941Z,3.40
2023-02-17T21:41:27.542Z,6.17
2023-02-17T21:44:16.279Z,2.87
2023-02-17T21:46:48.514Z,4.50
2023-02-17T21:49:16.550Z,4.63
2023-02-17T21:51:44.712Z,6.70
2023-02-17T21:54:13.097Z,5.33
2023-02-17T21:56:41.226Z,4.70
2023-02-17T21:59:09.217Z,4.10
2023-02-17T22:01:37.020Z,4.70
2023-02-17T22:04:06.451Z,4.10
2023-02-17T22:06:35.883Z,4.30
2023-02-17T22:09:04.427Z,5.13
2023-02-17T22:11:33.797Z,4.57
2023-02-17T22:14:03.584Z,5.10
2023-02-17T22:16:32.210Z,5.30
2023-02-17T22:19:00.238Z,3.93
2023-02-17T22:21:30.076Z,4.77
2023-02-17T22:23:58.801Z,4.10
2023-02-17T22:26:27.567Z,4.37
2023-02-17T22:28:55.581Z,4.03
2023-02-17T22:31:26.674Z,5.50
2023-02-17T22:33:56.594Z,6.10
2023-02-17T22:36:25.140Z,3.73
2023-02-17T22:38:54.873Z,3.00
2023-02-17T22:41:24.301Z,4.13
2023-02-17T22:43:52.505Z,4.17
2023-02-17T22:46:21.787Z,4.70
2023-02-17T22:48:50.784Z,4.37
2023-02-17T22:51:20.289Z,5.63
2023-02-17T22:53:48.090Z,4.50
2023-02-17T22:56:17.656Z,4.70
2023-02-17T22:58:45.380Z,4.37
2023-02-17T23:01:14.999Z,6.80
2023-02-17T23:03:43.118Z,4.07
2023-02-17T23:06:13.222Z,4.47
2023-02-17T23:08:41.166Z,6.00
2023-02-17T23:11:10.175Z,5.10
2023-02-17T23:13:42.567Z,4.83
2023-02-17T23:16:11.444Z,4.40
2023-02-17T23:18:39.133Z,4.07
2023-02-17T23:21:10.540Z,4.47
2023-02-17T23:23:38.239Z,4.27
2023-02-17T23:26:06.428Z,4.60
2023-02-17T23:28:34.641Z,5.80
2023-02-17T23:31:03.715Z,4.07
2023-02-17T23:33:31.700Z,4.13
2023-02-17T23:35:59.278Z,5.17
2023-02-17T23:38:29.735Z,3.67
2023-02-17T23:40:57.832Z,5.00
2023-02-17T23:43:25.920Z,5.53
2023-02-17T23:45:59.686Z,3.77
2023-02-17T23:48:28.860Z,4.40
2023-02-17T23:50:58.076Z,4.30
2023-02-17T23:53:25.973Z,4.83
2023-02-17T23:56:01.910Z,4.40
2023-02-17T23:58:30.006Z,4.03
